Time;durP1;ratioP1;P1;durP2;ratioP2;P2;SDS_P1;SDS_P2;PMS_P1;PMS_P2;Temp;Humidity;BMP_temperature;BMP_pressure;BME280_temperature;BME280_humidity;BME280_pressure;Samples;Min_cycle;Max_cycle;Signal;HPM_P1;HPM_P2
2022/01/01 00:00:27;;;;;;;4.43;4.07;;;11.10;99.90;;;;;;5057613;28;20451;-67
2022/01/01 00:03:09;;;;;;;5.90;4.23;;;11.10;99.90;;;;;;5057245;28;20458;-66
2022/01/01 00:05:44;;;;;;;4.40;3.80;;;11.10;99.90;;;;;;5058005;28;20461;-66
2022/01/01 00:08:34;;;;;;;5.10;4.50;;;11.10;99.90;;;;;;5049757;28;20527;-67
2022/01/01 00:11:05;;;;;;;7.30;4.93;;;11.00;99.90;;;;;;5049938;28;20491;-67
2022/01/01 00:14:12;;;;;;;4.40;4.10;;;11.00;99.90;;;;;;5050799;28;20440;-67
2022/01/01 00:16:55;;;;;;;5.27;4.77;;;11.00;99.90;;;;;;5063513;28;20481;-66
2022/01/01 00:19:35;;;;;;;8.27;5.10;;;11.10;99.90;;;;;;5060451;28;20441;-66
2022/01/01 00:22:09;;;;;;;5.97;4.37;;;11.00;99.90;;;;;;5051918;28;20463;-67
2022/01/01 00:24:38;;;;;;;6.53;5.20;;;11.10;99.90;;;;;;5045600;28;20476;-67
2022/01/01 00:27:16;;;;;;;5.40;4.90;;;11.10;99.90;;;;;;5050459;28;20612;-67
2022/01/01 00:29:47;;;;;;;8.00;4.43;;;11.00;99.90;;;;;;5048491;28;20427;-67
2022/01/01 00:32:21;;;;;;;6.07;4.60;;;11.10;99.90;;;;;;5041167;28;20476;-66
2022/01/01 00:34:52;;;;;;;5.00;4.50;;;11.10;99.90;;;;;;5064593;28;20459;-66
2022/01/01 00:37:32;;;;;;;6.27;4.70;;;11.10;99.90;;;;;;5065386;28;20507;-67
2022/01/01 00:40:09;;;;;;;4.90;4.40;;;11.10;99.90;;;;;;5053381;28;20574;-68
2022/01/01 00:42:42;;;;;;;5.77;5.17;;;11.10;99.90;;;;;;5035732;28;21032;-67
2022/01/01 00:45:26;;;;;;;4.93;4.33;;;11.10;99.90;;;;;;5029147;28;20459;-67
2022/01/01 00:48:11;;;;;;;4.83;4.40;;;11.10;99.90;;;;;;5051318;28;20438;-67
2022/01/01 00:50:44;;;;;;;5.10;4.60;;;11.10;99.90;;;;;;5053819;28;20470;-66
2022/01/01 00:53:18;;;;;;;5.40;4.50;;;11.10;99.90;;;;;;5052440;28;20432;-67
2022/01/01 00:55:49;;;;;;;5.33;4.83;;;11.00;99.90;;;;;;5058574;28;20462;-67
2022/01/01 00:58:19;;;;;;;5.13;4.50;;;11.10;99.90;;;;;;5052005;28;20444;-67
2022/01/01 01:01:14;;;;;;;4.90;3.80;;;11.10;99.90;;;;;;5047896;28;21027;-67
2022/01/01 01:03:51;;;;;;;6.60;5.03;;;11.10;99.90;;;;;;5054393;28;20455;-67
2022/01/01 01:06:32;;;;;;;4.40;3.93;;;11.10;99.90;;;;;;5041555;28;21012;-67
2022/01/01 01:09:10;;;;;;;5.50;4.60;;;11.10;99.90;;;;;;5046407;28;21055;-67
2022/01/01 01:11:46;;;;;;;4.97;4.47;;;11.10;99.90;;;;;;5067918;27;20464;-66
2022/01/01 01:14:21;;;;;;;5.80;5.30;;;11.10;99.90;;;;;;5055201;28;20464;-67
2022/01/01 01:16:56;;;;;;;5.30;4.80;;;11.10;99.90;;;;;;5070163;28;21317;-66
2022/01/01 01:19:31;;;;;;;5.03;4.53;;;11.10;99.90;;;;;;5029477;28;20435;-67
2022/01/01 01:21:59;;;;;;;5.60;5.10;;;11.00;99.90;;;;;;5059033;28;20467;-66
2022/01/01 01:24:28;;;;;;;4.93;4.43;;;11.10;99.90;;;;;;5049310;28;20477;-67
2022/01/01 01:27:11;;;;;;;7.10;4.43;;;11.10;99.90;;;;;;5048971;28;20502;-67
2022/01/01 01:29:45;;;;;;;4.77;4.37;;;11.00;99.90;;;;;;5048607;28;20443;-67
2022/01/01 01:32:14;;;;;;;5.10;4.60;;;11.00;99.90;;;;;;5058289;28;21023;-66
2022/01/01 01:34:47;;;;;;;4.77;4.30;;;11.10;99.90;;;;;;5053477;28;20457;-67
2022/01/01 01:37:22;;;;;;;5.63;5.03;;;11.10;99.90;;;;;;5050395;28;20467;-67
2022/01/01 01:40:06;;;;;;;5.33;4.70;;;11.10;99.90;;;;;;5045406;28;20485;-67
2022/01/01 01:42:37;;;;;;;5.93;4.97;;;11.10;99.90;;;;;;5047843;28;20476;-67
2022/01/01 01:45:21;;;;;;;5.77;4.53;;;11.10;99.90;;;;;;5036183;28;20473;-66
2022/01/01 01:47:51;;;;;;;5.20;4.70;;;11.10;99.90;;;;;;5049049;28;20459;-67
2022/01/01 01:50:33;;;;;;;4.90;4.50;;;11.10;99.90;;;;;;5054581;28;20431;-67
2022/01/01 01:53:03;;;;;;;5.90;3.93;;;11.10;99.90;;;;;;5039581;28;20515;-67
2022/01/01 01:55:38;;;;;;;4.90;4.50;;;11.10;99.90;;;;;;5057377;28;20471;-66
2022/01/01 01:58:11;;;;;;;5.30;4.53;;;11.00;99.90;;;;;;5050786;28;20507;-67
2022/01/01 02:01:10;;;;;;;6.30;5.40;;;11.10;99.90;;;;;;5037479;28;20468;-67
2022/01/01 02:03:42;;;;;;;4.80;4.27;;;11.00;99.90;;;;;;5053528;28;20435;-67
2022/01/01 02:06:16;;;;;;;6.13;5.00;;;11.10;99.90;;;;;;5049919;28;20474;-66
2022/01/01 02:08:49;;;;;;;5.03;4.53;;;11.10;99.90;;;;;;5058717;28;20451;-67
2022/01/01 02:11:23;;;;;;;5.07;4.50;;;11.10;99.90;;;;;;5060368;28;20479;-66
2022/01/01 02:17:08;;;;;;;4.80;4.07;;;11.10;99.90;;;;;;5047263;28;20471;-66
2022/01/01 02:20:00;;;;;;;6.80;5.30;;;11.10;99.90;;;;;;5050891;28;20443;-66
2022/01/01 02:22:47;;;;;;;4.50;4.10;;;11.10;99.90;;;;;;5060404;28;20476;-67
2022/01/01 02:25:26;;;;;;;5.77;4.57;;;11.10;99.90;;;;;;5079139;28;21167;-67
2022/01/01 02:28:01;;;;;;;5.07;4.57;;;11.00;99.90;;;;;;5052905;28;20438;-67
2022/01/01 02:30:30;;;;;;;5.33;4.77;;;11.00;99.90;;;;;;5053559;28;20965;-66
2022/01/01 02:33:04;;;;;;;6.97;5.87;;;11.00;99.90;;;;;;5053653;28;20453;-66
2022/01/01 02:35:36;;;;;;;5.93;5.33;;;11.00;99.90;;;;;;5061894;28;20499;-67
2022/01/01 02:38:12;;;;;;;5.07;4.10;;;11.10;99.90;;;;;;5046669;28;20447;-67
2022/01/01 02:40:43;;;;;;;5.33;4.80;;;11.00;99.90;;;;;;5053463;28;20466;-66
2022/01/01 02:43:25;;;;;;;5.77;4.73;;;11.10;99.90;;;;;;5040764;28;20443;-67
2022/01/01 02:46:14;;;;;;;4.60;4.20;;;11.10;99.90;;;;;;5056830;28;20467;-67
2022/01/01 02:48:54;;;;;;;4.57;4.17;;;11.10;99.90;;;;;;5056795;28;20516;-67
2022/01/01 02:51:26;;;;;;;4.67;4.20;;;11.10;99.90;;;;;;5052273;28;20474;-66
2022/01/01 02:53:56;;;;;;;5.00;4.57;;;11.00;99.90;;;;;;5050303;28;20878;-66
2022/01/01 02:56:25;;;;;;;7.97;4.17;;;11.10;99.90;;;;;;5049193;28;20914;-67
2022/01/01 03:01:52;;;;;;;4.37;3.67;;;11.10;99.90;;;;;;5029404;28;20478;-67
2022/01/01 03:04:21;;;;;;;4.43;4.03;;;11.10;99.90;;;;;;5049994;28;22117;-67
2022/01/01 03:06:55;;;;;;;8.00;5.07;;;11.10;99.90;;;;;;5065930;28;20472;-67
2022/01/01 03:09:34;;;;;;;5.37;4.87;;;11.10;99.90;;;;;;5047768;28;20450;-68
2022/01/01 03:12:05;;;;;;;4.23;3.87;;;11.10;99.90;;;;;;5042865;28;20555;-67
2022/01/01 03:14:35;;;;;;;5.27;4.87;;;11.10;99.90;;;;;;5051059;28;20570;-66
2022/01/01 03:17:05;;;;;;;5.87;4.70;;;11.00;99.90;;;;;;5047713;28;20465;-67
2022/01/01 03:19:40;;;;;;;5.00;4.20;;;11.10;99.90;;;;;;5047917;28;20589;-67
2022/01/01 03:22:25;;;;;;;5.37;4.87;;;11.10;99.90;;;;;;5055330;28;20477;-66
2022/01/01 03:25:00;;;;;;;5.20;4.70;;;11.00;99.90;;;;;;5054448;28;21099;-67
2022/01/01 03:27:35;;;;;;;5.67;4.77;;;11.10;99.90;;;;;;5042146;28;20482;-66
2022/01/01 03:30:16;;;;;;;5.87;4.70;;;11.10;99.90;;;;;;5052348;28;20558;-67
2022/01/01 03:32:47;;;;;;;3.80;3.40;;;11.10;99.90;;;;;;5053146;28;20484;-67
2022/01/01 03:35:19;;;;;;;6.77;5.33;;;11.10;99.90;;;;;;5063524;28;20517;-67
2022/01/01 03:37:52;;;;;;;5.37;4.43;;;11.00;99.90;;;;;;5051330;28;20439;-67
2022/01/01 03:40:22;;;;;;;4.87;3.87;;;11.00;99.90;;;;;;5056414;28;20445;-66
2022/01/01 03:42:51;;;;;;;6.60;5.00;;;11.10;99.90;;;;;;5057898;28;20440;-66
2022/01/01 03:45:22;;;;;;;6.67;4.57;;;11.00;99.90;;;;;;5050115;28;20804;-67
2022/01/01 03:48:03;;;;;;;5.00;4.60;;;11.10;99.90;;;;;;5070061;28;20847;-66
2022/01/01 03:50:32;;;;;;;5.27;4.77;;;11.10;99.90;;;;;;5039700;28;20463;-67
2022/01/01 03:53:01;;;;;;;4.93;4.40;;;11.10;99.90;;;;;;5057311;28;20447;-66
2022/01/01 03:55:38;;;;;;;4.93;4.40;;;11.10;99.90;;;;;;5047263;28;20810;-67
2022/01/01 03:58:12;;;;;;;4.43;4.03;;;11.10;99.90;;;;;;5062985;28;20446;-67
2022/01/01 04:00:44;;;;;;;4.60;4.20;;;11.00;99.90;;;;;;5064853;28;20871;-67
2022/01/01 04:03:22;;;;;;;5.23;4.70;;;11.10;99.90;;;;;;5060478;28;20466;-66
2022/01/01 04:06:01;;;;;;;6.00;5.40;;;11.10;99.90;;;;;;5053749;28;20474;-67
2022/01/01 04:08:31;;;;;;;7.83;4.70;;;11.10;99.90;;;;;;5062867;28;20440;-66
2022/01/01 04:11:07;;;;;;;5.30;4.40;;;11.00;99.90;;;;;;5047066;28;20472;-66
2022/01/01 04:13:46;;;;;;;5.10;4.57;;;11.10;99.90;;;;;;5059405;28;20465;-67
2022/01/01 04:16:21;;;;;;;4.70;4.30;;;11.10;99.90;;;;;;5059694;28;20468;-66
2022/01/01 04:18:54;;;;;;;4.40;3.90;;;11.10;99.90;;;;;;5071393;28;20452;-66
2022/01/01 04:21:28;;;;;;;4.60;4.10;;;11.10;99.90;;;;;;5067399;28;20557;-66
2022/01/01 04:23:59;;;;;;;5.00;4.30;;;11.10;99.90;;;;;;5061793;28;20434;-67
2022/01/01 04:26:29;;;;;;;4.67;4.27;;;11.00;99.90;;;;;;5055556;28;20507;-66
2022/01/01 04:29:02;;;;;;;5.90;4.90;;;11.10;99.90;;;;;;5049342;28;20496;-66
2022/01/01 04:31:31;;;;;;;5.10;4.47;;;11.00;99.90;;;;;;5056957;28;20895;-66
2022/01/01 04:34:04;;;;;;;5.40;4.40;;;11.10;99.90;;;;;;5051938;28;20843;-67
2022/01/01 04:36:49;;;;;;;5.23;4.70;;;11.10;99.90;;;;;;5047303;28;20473;-67
2022/01/01 04:39:46;;;;;;;4.87;4.47;;;11.10;99.90;;;;;;5055401;28;20580;-67
2022/01/01 04:42:19;;;;;;;5.20;4.50;;;11.10;99.90;;;;;;5045169;28;20482;-67
2022/01/01 04:44:51;;;;;;;4.83;4.37;;;11.10;99.90;;;;;;5048359;28;20476;-67
2022/01/01 04:47:23;;;;;;;5.50;4.23;;;11.10;99.90;;;;;;5045920;28;20561;-68
2022/01/01 04:50:10;;;;;;;4.53;4.13;;;11.00;99.90;;;;;;5065372;28;20430;-67
2022/01/01 04:52:45;;;;;;;4.57;4.13;;;11.00;99.90;;;;;;5063429;28;20479;-67
2022/01/01 04:55:15;;;;;;;5.20;4.33;;;11.10;99.90;;;;;;5045153;28;20525;-66
2022/01/01 04:57:53;;;;;;;4.33;3.93;;;11.10;99.90;;;;;;5055097;28;20521;-67
2022/01/01 05:00:30;;;;;;;6.10;4.20;;;11.10;99.90;;;;;;5051980;28;20462;-67
2022/01/01 05:03:05;;;;;;;4.70;4.07;;;11.10;99.90;;;;;;5056641;28;20446;-68
2022/01/01 05:05:34;;;;;;;6.37;4.37;;;11.10;99.90;;;;;;5054430;28;20565;-68
2022/01/01 05:08:04;;;;;;;4.73;4.07;;;11.10;99.90;;;;;;5057868;28;20435;-67
2022/01/01 05:10:33;;;;;;;3.50;3.20;;;11.00;99.90;;;;;;5052081;28;20447;-67
2022/01/01 05:13:13;;;;;;;4.93;4.47;;;11.10;99.90;;;;;;5056262;28;20520;-67
2022/01/01 05:15:55;;;;;;;4.90;4.00;;;11.10;99.90;;;;;;5063892;28;20969;-67
2022/01/01 05:18:37;;;;;;;4.63;3.73;;;11.10;99.90;;;;;;5056914;28;20428;-67
2022/01/01 05:21:08;;;;;;;5.10;4.60;;;11.10;99.90;;;;;;5046599;28;20471;-67
2022/01/01 05:23:43;;;;;;;4.67;3.40;;;11.00;99.90;;;;;;5051944;28;20558;-67
2022/01/01 05:26:20;;;;;;;3.90;3.50;;;11.10;99.90;;;;;;5028484;28;20479;-67
2022/01/01 05:29:08;;;;;;;6.20;3.90;;;11.00;99.90;;;;;;5040910;28;20444;-67
2022/01/01 05:31:48;;;;;;;4.63;4.23;;;11.00;99.90;;;;;;5058764;28;20830;-67
2022/01/01 05:34:19;;;;;;;5.13;4.27;;;11.10;99.90;;;;;;5054232;28;20451;-67
2022/01/01 05:36:59;;;;;;;5.00;4.50;;;11.00;99.90;;;;;;5070909;28;20470;-68
2022/01/01 05:39:35;;;;;;;4.80;4.30;;;11.10;99.90;;;;;;5061128;28;20471;-65
2022/01/01 05:42:24;;;;;;;7.10;4.00;;;11.10;99.90;;;;;;5054301;28;20893;-68
2022/01/01 05:45:06;;;;;;;3.97;3.60;;;11.10;99.90;;;;;;5065107;28;20477;-68
2022/01/01 05:47:35;;;;;;;6.20;4.47;;;11.10;99.90;;;;;;5048678;28;20466;-68
2022/01/01 05:50:10;;;;;;;4.97;3.57;;;11.10;99.90;;;;;;5029177;28;20442;-67
2022/01/01 05:52:49;;;;;;;6.60;4.77;;;11.10;99.90;;;;;;5022452;28;20457;-67
2022/01/01 05:55:17;;;;;;;4.70;4.30;;;11.00;99.90;;;;;;5021486;28;20455;-67
2022/01/01 05:57:56;;;;;;;5.17;4.33;;;11.10;99.90;;;;;;5041204;28;20711;-67
2022/01/01 06:00:46;;;;;;;5.57;4.23;;;11.00;99.90;;;;;;5033089;28;20576;-67
2022/01/01 06:03:18;;;;;;;5.60;4.47;;;11.10;99.90;;;;;;5043589;28;20978;-67
2022/01/01 06:05:56;;;;;;;4.30;3.90;;;11.00;99.90;;;;;;5029141;28;20486;-66
2022/01/01 06:08:34;;;;;;;6.93;3.97;;;11.00;99.90;;;;;;5042961;28;21151;-67
2022/01/01 06:11:10;;;;;;;5.30;4.27;;;11.10;99.90;;;;;;5043602;28;20472;-67
2022/01/01 06:13:42;;;;;;;5.13;4.17;;;11.10;99.90;;;;;;5030095;28;21008;-67
2022/01/01 06:16:14;;;;;;;6.17;3.80;;;11.00;99.90;;;;;;5035063;28;20467;-67
2022/01/01 06:18:48;;;;;;;4.83;3.40;;;11.00;99.90;;;;;;5045966;28;20435;-66
2022/01/01 06:21:27;;;;;;;5.50;4.00;;;11.10;99.90;;;;;;5030552;28;20471;-67
2022/01/01 06:24:03;;;;;;;5.80;3.90;;;11.10;99.90;;;;;;5032244;28;20475;-66
2022/01/01 06:26:32;;;;;;;5.30;4.40;;;11.10;99.90;;;;;;5018403;28;20481;-67
2022/01/01 06:29:06;;;;;;;4.40;3.60;;;11.10;99.90;;;;;;5059855;28;20440;-67
2022/01/01 06:31:40;;;;;;;4.10;3.70;;;11.10;99.90;;;;;;5022074;28;20479;-67
2022/01/01 06:34:19;;;;;;;4.20;3.53;;;11.00;99.90;;;;;;5035381;28;20468;-67
2022/01/01 06:36:53;;;;;;;4.50;4.10;;;11.00;99.90;;;;;;5038843;28;20470;-68
2022/01/01 06:39:38;;;;;;;5.23;3.50;;;11.10;99.90;;;;;;5030711;28;20505;-66
2022/01/01 06:42:19;;;;;;;5.50;4.07;;;11.10;99.90;;;;;;5029429;28;20563;-67
2022/01/01 06:45:01;;;;;;;6.23;5.40;;;11.10;99.90;;;;;;5033370;28;20457;-67
2022/01/01 06:47:32;;;;;;;4.33;3.93;;;11.00;99.90;;;;;;5036768;28;20475;-69
2022/01/01 06:50:03;;;;;;;4.00;3.70;;;11.10;99.90;;;;;;5037742;28;21155;-67
2022/01/01 06:52:42;;;;;;;5.00;4.30;;;11.10;99.90;;;;;;5029055;28;20495;-66
2022/01/01 06:55:14;;;;;;;5.30;4.13;;;11.10;99.90;;;;;;5018458;28;20455;-67
2022/01/01 06:57:53;;;;;;;4.50;4.07;;;11.10;99.90;;;;;;5037743;28;20491;-67
2022/01/01 07:00:26;;;;;;;4.83;4.33;;;11.10;99.90;;;;;;5021728;28;20601;-67
2022/01/01 07:02:56;;;;;;;4.33;3.77;;;11.10;99.90;;;;;;5063889;28;20444;-66
2022/01/01 07:05:38;;;;;;;4.20;3.80;;;11.00;99.90;;;;;;5036472;28;20459;-67
2022/01/01 07:08:14;;;;;;;4.00;3.60;;;11.00;99.90;;;;;;5033252;28;20471;-68
2022/01/01 07:10:46;;;;;;;6.97;6.00;;;11.10;99.90;;;;;;5026211;28;20479;-66
2022/01/01 07:13:38;;;;;;;4.70;4.17;;;11.00;99.90;;;;;;5037457;28;20526;-67
2022/01/01 07:16:09;;;;;;;5.23;4.60;;;11.00;99.90;;;;;;5057452;28;20598;-67
2022/01/01 07:18:51;;;;;;;4.10;3.53;;;11.10;99.90;;;;;;5025460;28;20427;-67
2022/01/01 07:21:44;;;;;;;3.73;3.40;;;11.10;99.90;;;;;;5034762;28;20481;-67
2022/01/01 07:24:16;;;;;;;4.40;3.70;;;11.00;99.90;;;;;;5045143;28;20545;-67
2022/01/01 07:26:53;;;;;;;3.63;3.27;;;11.00;99.90;;;;;;5028862;28;20479;-67
2022/01/01 07:29:26;;;;;;;5.43;3.47;;;11.00;99.90;;;;;;5035787;28;20522;-67
2022/01/01 07:32:01;;;;;;;4.13;3.70;;;11.00;99.90;;;;;;5023397;28;20469;-67
2022/01/01 07:34:33;;;;;;;4.43;4.03;;;11.10;99.90;;;;;;5040249;28;20462;-67
2022/01/01 07:37:07;;;;;;;3.70;3.33;;;11.10;99.90;;;;;;5037861;28;20556;-67
2022/01/01 07:39:49;;;;;;;3.93;3.63;;;11.10;99.90;;;;;;5026628;28;20457;-67
2022/01/01 07:42:19;;;;;;;7.03;4.23;;;11.10;99.90;;;;;;5039138;28;20502;-67
2022/01/01 07:44:59;;;;;;;3.80;3.50;;;11.10;99.90;;;;;;5043773;28;20446;-67
2022/01/01 07:47:31;;;;;;;3.80;3.50;;;11.00;99.90;;;;;;5040474;28;20476;-67
2022/01/01 07:50:16;;;;;;;4.67;3.47;;;11.00;99.90;;;;;;5031650;28;21045;-67
2022/01/01 07:52:48;;;;;;;7.63;4.23;;;11.00;99.90;;;;;;5043035;28;20964;-67
2022/01/01 07:55:22;;;;;;;5.60;4.17;;;11.10;99.90;;;;;;5031760;28;20562;-67
2022/01/01 07:58:26;;;;;;;3.87;3.47;;;11.00;99.90;;;;;;5037083;28;20467;-67
2022/01/01 08:00:57;;;;;;;3.80;3.50;;;11.00;99.90;;;;;;5023694;28;20458;-67
2022/01/01 08:03:28;;;;;;;4.43;3.73;;;11.00;99.90;;;;;;5049530;28;20439;-66
2022/01/01 08:06:04;;;;;;;4.43;3.63;;;11.00;99.90;;;;;;5035391;28;20470;-67
2022/01/01 08:08:35;;;;;;;4.00;3.50;;;11.00;99.90;;;;;;5040847;28;20498;-68
2022/01/01 08:11:29;;;;;;;3.90;3.50;;;11.00;99.90;;;;;;5026627;28;20882;-68
2022/01/01 08:14:06;;;;;;;4.53;3.80;;;11.10;99.90;;;;;;5043061;28;20451;-68
2022/01/01 08:16:35;;;;;;;4.07;3.77;;;11.00;99.90;;;;;;5015675;28;20473;-68
2022/01/01 08:19:09;;;;;;;3.67;3.37;;;11.10;99.90;;;;;;5038116;28;20555;-68
2022/01/01 08:21:47;;;;;;;5.17;4.10;;;11.10;99.90;;;;;;5049101;28;20501;-67
2022/01/01 08:24:18;;;;;;;4.00;3.60;;;11.00;99.90;;;;;;5037268;28;20874;-67
2022/01/01 08:26:47;;;;;;;3.40;3.10;;;11.00;99.90;;;;;;5039941;28;20466;-68
2022/01/01 08:29:20;;;;;;;4.63;4.13;;;11.10;99.90;;;;;;5047761;28;20468;-68
2022/01/01 08:32:03;;;;;;;5.50;3.60;;;11.10;99.90;;;;;;5048134;28;21012;-68
2022/01/01 08:34:39;;;;;;;4.10;3.70;;;11.10;99.90;;;;;;5038553;28;20470;-68
2022/01/01 08:37:11;;;;;;;3.90;3.57;;;11.10;99.90;;;;;;5041687;28;20842;-66
2022/01/01 08:39:40;;;;;;;3.57;3.27;;;11.10;99.90;;;;;;5030120;28;20472;-67
2022/01/01 08:42:12;;;;;;;3.40;3.10;;;11.10;99.90;;;;;;5045107;28;20494;-67
2022/01/01 08:44:44;;;;;;;4.33;3.43;;;11.10;99.90;;;;;;5038573;28;20559;-67
2022/01/01 08:47:18;;;;;;;4.30;3.90;;;11.10;99.90;;;;;;5045983;28;20467;-67
2022/01/01 08:49:47;;;;;;;2.93;2.73;;;11.10;99.90;;;;;;5043169;28;20473;-66
2022/01/01 08:52:20;;;;;;;3.63;3.13;;;11.10;99.90;;;;;;5039076;28;20526;-67
2022/01/01 08:54:56;;;;;;;3.90;3.50;;;11.10;99.90;;;;;;5029455;28;21202;-67
2022/01/01 08:57:29;;;;;;;3.40;3.10;;;11.10;99.90;;;;;;5026098;28;21035;-66
2022/01/01 08:59:59;;;;;;;3.40;3.10;;;11.10;99.90;;;;;;5028238;28;20533;-66
2022/01/01 09:02:28;;;;;;;3.30;3.03;;;11.10;99.90;;;;;;5001004;28;21287;-67
2022/01/01 09:04:59;;;;;;;2.80;2.60;;;11.10;99.90;;;;;;5010248;28;20451;-68
2022/01/01 09:07:59;;;;;;;4.40;4.00;;;11.10;99.90;;;;;;5014802;28;20569;-66
2022/01/01 09:10:39;;;;;;;4.07;3.30;;;11.10;99.90;;;;;;5027662;28;21153;-66
2022/01/01 09:13:09;;;;;;;3.80;3.37;;;11.10;99.90;;;;;;5039000;28;20588;-66
2022/01/01 09:15:43;;;;;;;3.37;2.90;;;11.10;99.90;;;;;;5025505;28;20551;-66
2022/01/01 09:18:17;;;;;;;5.43;3.80;;;11.10;99.90;;;;;;5030163;28;20441;-67
2022/01/01 09:20:51;;;;;;;4.63;3.47;;;11.10;99.90;;;;;;5034282;28;20554;-67
2022/01/01 09:23:27;;;;;;;3.90;3.07;;;11.10;99.90;;;;;;5043265;28;20440;-67
2022/01/01 09:26:00;;;;;;;3.80;3.50;;;11.10;99.90;;;;;;5039713;28;20475;-66
2022/01/01 09:28:35;;;;;;;3.73;3.43;;;11.10;99.90;;;;;;5026813;28;20646;-66
2022/01/01 09:31:04;;;;;;;3.50;3.20;;;11.10;99.90;;;;;;5040707;28;20480;-67
2022/01/01 09:33:37;;;;;;;3.33;3.03;;;11.10;99.90;;;;;;5038749;28;20769;-67
2022/01/01 09:36:15;;;;;;;4.60;3.53;;;11.20;99.90;;;;;;5030363;28;20473;-67
2022/01/01 09:38:56;;;;;;;4.70;3.10;;;11.20;99.90;;;;;;5041718;28;20927;-67
2022/01/01 09:41:42;;;;;;;3.50;3.20;;;11.10;99.90;;;;;;5035204;28;20463;-67
2022/01/01 09:44:22;;;;;;;4.93;3.33;;;11.10;99.90;;;;;;5011461;28;20445;-66
2022/01/01 09:46:59;;;;;;;4.40;3.50;;;11.20;99.90;;;;;;5034097;28;20471;-67
2022/01/01 09:49:43;;;;;;;3.90;2.70;;;11.20;99.90;;;;;;5008905;28;20469;-67
2022/01/01 09:52:20;;;;;;;3.60;2.90;;;11.20;99.90;;;;;;5021311;28;20586;-67
2022/01/01 09:54:51;;;;;;;4.43;3.00;;;11.20;99.90;;;;;;5029484;28;20479;-66
2022/01/01 09:57:22;;;;;;;4.00;3.50;;;11.20;99.90;;;;;;5035900;28;20464;-67
2022/01/01 10:00:00;;;;;;;5.90;3.33;;;11.20;99.90;;;;;;5027682;28;20848;-66
2022/01/01 10:02:34;;;;;;;4.00;3.33;;;11.20;99.90;;;;;;5035066;28;20468;-67
2022/01/01 10:05:13;;;;;;;3.20;3.00;;;11.20;99.90;;;;;;5040625;28;20526;-66
2022/01/01 10:07:45;;;;;;;3.77;3.37;;;11.20;99.90;;;;;;5048913;28;20447;-67
2022/01/01 10:10:31;;;;;;;4.20;3.80;;;11.20;99.90;;;;;;5030871;28;20854;-67
2022/01/01 10:13:12;;;;;;;3.60;3.10;;;11.20;99.90;;;;;;5060883;28;20448;-66
2022/01/01 10:15:43;;;;;;;3.63;3.33;;;11.20;99.90;;;;;;5015358;28;20861;-67
2022/01/01 10:18:31;;;;;;;3.60;3.30;;;11.20;99.90;;;;;;5036997;28;20454;-67
2022/01/01 10:21:13;;;;;;;3.83;3.53;;;11.20;99.90;;;;;;5043636;28;20475;-67
2022/01/01 10:23:45;;;;;;;3.10;2.90;;;11.20;99.90;;;;;;5026019;28;20526;-67
2022/01/01 10:29:34;;;;;;;4.27;3.87;;;11.20;99.90;;;;;;5032636;28;20455;-67
2022/01/01 10:32:06;;;;;;;4.10;2.90;;;11.20;99.90;;;;;;5048620;28;20472;-66
2022/01/01 10:34:44;;;;;;;5.83;3.60;;;11.20;99.90;;;;;;5023094;28;20524;-66
2022/01/01 10:37:42;;;;;;;3.20;2.90;;;11.20;99.90;;;;;;5038213;28;20460;-67
2022/01/01 10:40:25;;;;;;;3.30;2.43;;;11.20;99.90;;;;;;5019489;28;20985;-66
2022/01/01 10:42:56;;;;;;;2.90;2.70;;;11.20;99.90;;;;;;5028758;28;20539;-66
2022/01/01 10:45:31;;;;;;;3.57;3.27;;;11.20;99.90;;;;;;5006801;28;20465;-67
2022/01/01 10:48:15;;;;;;;3.10;2.60;;;11.20;99.90;;;;;;5028178;28;20495;-67
2022/01/01 10:50:57;;;;;;;3.70;3.10;;;11.20;99.90;;;;;;5017748;28;20476;-67
2022/01/01 10:53:30;;;;;;;3.07;2.80;;;11.20;99.90;;;;;;5031435;28;20950;-66
2022/01/01 10:56:03;;;;;;;3.60;3.30;;;11.20;99.90;;;;;;5021038;28;20466;-67
2022/01/01 10:58:38;;;;;;;5.23;3.07;;;11.20;99.90;;;;;;5038116;28;20462;-67
2022/01/01 11:01:16;;;;;;;3.30;3.07;;;11.20;99.90;;;;;;5010548;28;20481;-67
2022/01/01 11:04:02;;;;;;;2.93;2.67;;;11.20;99.90;;;;;;5038186;28;20539;-67
2022/01/01 11:06:33;;;;;;;3.10;2.90;;;11.20;99.90;;;;;;5027455;28;20474;-67
2022/01/01 11:09:03;;;;;;;3.67;2.97;;;11.20;99.90;;;;;;5035903;28;20459;-67
2022/01/01 11:11:37;;;;;;;4.97;2.97;;;11.20;99.90;;;;;;5041738;28;20557;-67
2022/01/01 11:14:20;;;;;;;3.40;3.00;;;11.20;99.90;;;;;;5041393;28;20488;-67
2022/01/01 11:17:03;;;;;;;3.47;2.80;;;11.20;99.90;;;;;;5029968;28;21269;-67
2022/01/01 11:19:52;;;;;;;3.23;2.57;;;11.30;99.90;;;;;;5051692;28;20432;-67
2022/01/01 11:22:27;;;;;;;3.17;2.87;;;11.20;99.90;;;;;;5039240;28;20474;-67
2022/01/01 11:25:07;;;;;;;4.20;2.90;;;11.30;99.90;;;;;;5050390;28;20459;-67
2022/01/01 11:27:39;;;;;;;3.70;2.90;;;11.30;99.90;;;;;;5072853;28;20471;-67
2022/01/01 11:30:14;;;;;;;3.50;3.20;;;11.30;99.90;;;;;;5053595;28;20469;-67
2022/01/01 11:32:51;;;;;;;3.30;2.50;;;11.20;99.90;;;;;;5044436;28;20474;-66
2022/01/01 11:35:30;;;;;;;3.60;3.07;;;11.30;99.90;;;;;;5046864;28;20460;-67
2022/01/01 11:38:03;;;;;;;3.93;3.33;;;11.30;99.90;;;;;;5031447;28;20440;-68
2022/01/01 11:40:43;;;;;;;3.20;2.90;;;11.30;99.90;;;;;;5038793;28;20468;-67
2022/01/01 11:43:53;;;;;;;3.90;3.60;;;11.30;99.90;;;;;;5045919;28;20889;-67
2022/01/01 11:46:36;;;;;;;3.53;2.70;;;11.20;99.90;;;;;;5033550;28;20475;-73
2022/01/01 11:49:10;;;;;;;5.20;2.97;;;11.30;99.90;;;;;;5047383;28;20451;-72
2022/01/01 11:51:56;;;;;;;3.53;3.10;;;11.30;99.90;;;;;;5024718;28;20484;-72
2022/01/01 11:54:41;;;;;;;3.33;3.00;;;11.30;99.90;;;;;;5025151;28;20461;-72
2022/01/01 11:57:22;;;;;;;3.33;3.03;;;11.30;99.90;;;;;;5032903;28;20857;-72
2022/01/01 12:00:15;;;;;;;3.23;2.67;;;11.30;99.90;;;;;;5038543;28;20432;-73
2022/01/01 12:02:49;;;;;;;2.67;2.47;;;11.30;99.90;;;;;;5022433;28;21253;-73
2022/01/01 12:05:21;;;;;;;3.43;3.00;;;11.30;99.90;;;;;;5043204;28;20467;-72
2022/01/01 12:07:58;;;;;;;2.90;2.70;;;11.30;99.90;;;;;;5062337;28;20462;-73
2022/01/01 12:10:37;;;;;;;3.70;3.30;;;11.30;99.90;;;;;;5061878;28;20470;-73
2022/01/01 12:13:13;;;;;;;2.87;2.53;;;11.30;99.90;;;;;;5044495;28;20436;-72
2022/01/01 12:18:43;;;;;;;2.97;2.67;;;11.40;99.90;;;;;;5080465;28;20443;-72
2022/01/01 12:21:41;;;;;;;3.77;2.80;;;11.50;99.90;;;;;;5051246;28;20489;-73
2022/01/01 12:24:22;;;;;;;3.80;3.30;;;11.50;99.90;;;;;;5055229;28;20453;-71
2022/01/01 12:27:10;;;;;;;5.90;2.90;;;11.60;99.90;;;;;;5040035;28;20218;-73
2022/01/01 12:29:45;;;;;;;2.50;2.30;;;11.60;99.90;;;;;;5054381;28;20552;-71
2022/01/01 12:32:37;;;;;;;5.50;2.80;;;11.60;99.90;;;;;;5042620;28;20465;-72
2022/01/01 12:35:18;;;;;;;3.20;2.83;;;11.60;99.90;;;;;;5054791;28;20465;-72
2022/01/01 12:38:06;;;;;;;2.97;2.70;;;11.60;99.90;;;;;;5051051;28;20486;-71
2022/01/01 12:40:56;;;;;;;5.17;3.33;;;11.50;99.90;;;;;;5042476;28;20852;-72
2022/01/01 12:43:34;;;;;;;5.40;3.40;;;11.50;99.90;;;;;;5041858;28;20530;-72
2022/01/01 12:46:13;;;;;;;2.80;2.60;;;11.50;99.90;;;;;;5039971;28;20486;-72
2022/01/01 12:49:17;;;;;;;3.83;2.93;;;11.50;99.90;;;;;;5058995;28;20433;-72
2022/01/01 12:51:52;;;;;;;4.10;2.67;;;11.50;99.90;;;;;;5060213;27;20875;-72
2022/01/01 12:54:33;;;;;;;6.00;2.63;;;11.50;99.90;;;;;;5048801;28;20477;-72
2022/01/01 12:57:05;;;;;;;6.37;2.43;;;11.50;99.90;;;;;;5062265;28;21076;-72
2022/01/01 12:59:42;;;;;;;2.73;2.53;;;11.40;99.90;;;;;;5050886;28;20430;-72
2022/01/01 13:02:30;;;;;;;4.23;2.10;;;11.40;99.90;;;;;;5075271;28;20456;-72
2022/01/01 13:05:10;;;;;;;9.93;2.13;;;11.40;99.90;;;;;;5053018;28;20479;-72
2022/01/01 13:07:59;;;;;;;4.43;2.77;;;11.40;99.90;;;;;;5043624;28;20472;-72
2022/01/01 13:10:33;;;;;;;2.97;2.77;;;11.40;99.90;;;;;;5042460;28;20463;-71
2022/01/01 13:13:08;;;;;;;3.70;3.23;;;11.40;99.90;;;;;;5061808;28;20433;-72
2022/01/01 13:15:53;;;;;;;2.70;2.50;;;11.40;99.90;;;;;;5053463;28;20477;-72
2022/01/01 13:18:33;;;;;;;5.60;3.00;;;11.40;99.90;;;;;;5055264;28;20447;-72
2022/01/01 13:21:09;;;;;;;2.20;2.00;;;11.40;99.90;;;;;;5055265;28;20467;-72
2022/01/01 13:23:59;;;;;;;2.40;2.20;;;11.50;99.90;;;;;;5047763;28;20458;-72
2022/01/01 13:26:37;;;;;;;2.50;2.30;;;11.40;99.90;;;;;;5080811;28;20477;-72
2022/01/01 13:29:14;;;;;;;3.07;2.30;;;11.40;99.90;;;;;;5041652;28;20439;-72
2022/01/01 13:31:54;;;;;;;3.27;2.33;;;11.40;99.90;;;;;;5042331;28;20838;-72
2022/01/01 13:34:32;;;;;;;3.97;2.40;;;11.40;99.90;;;;;;5044633;28;20994;-72
2022/01/01 13:37:23;;;;;;;4.87;2.13;;;11.40;99.90;;;;;;5047706;28;20900;-72
2022/01/01 13:40:03;;;;;;;3.13;2.43;;;11.40;99.90;;;;;;5029751;28;20436;-72
2022/01/01 13:42:48;;;;;;;3.20;2.30;;;11.40;99.90;;;;;;5017846;28;20468;-71
2022/01/01 13:45:36;;;;;;;2.70;1.77;;;11.50;99.90;;;;;;5034785;28;20483;-71
2022/01/01 13:48:17;;;;;;;4.27;1.93;;;11.50;99.90;;;;;;5048520;28;20443;-73
2022/01/01 13:50:51;;;;;;;6.20;1.80;;;11.70;99.90;;;;;;5060003;28;20487;-66